Time;durP1;ratioP1;P1;durP2;ratioP2;P2;SDS_P1;SDS_P2;PMS_P1;PMS_P2;Temp;Humidity;BMP_temperature;BMP_pressure;BME280_temperature;BME280_humidity;BME280_pressure;Samples;Min_cycle;Max_cycle;Signal;HPM_P1;HPM_P2
2022/06/06 00:00:42;;;;;;;1.20;1.10;;;20.80;59.80;;;;;;5082377;28;20025;-52
2022/06/06 00:03:09;;;;;;;0.95;0.95;;;20.80;59.70;;;;;;5066310;28;20037;-56
2022/06/06 00:05:36;;;;;;;1.30;1.20;;;20.80;59.60;;;;;;5062007;28;20037;-56
2022/06/06 00:08:03;;;;;;;1.15;1.05;;;20.80;59.60;;;;;;5062373;28;20044;-55
2022/06/06 00:10:30;;;;;;;1.10;1.00;;;20.80;59.60;;;;;;5062059;28;20036;-56
2022/06/06 00:12:56;;;;;;;1.05;1.00;;;20.80;59.50;;;;;;5062092;28;20058;-55
2022/06/06 00:15:22;;;;;;;1.20;1.10;;;20.80;59.40;;;;;;5061937;28;20025;-56
2022/06/06 00:17:48;;;;;;;1.42;0.88;;;20.80;59.30;;;;;;5061964;28;20029;-54
2022/06/06 00:20:16;;;;;;;1.07;0.97;;;20.90;59.30;;;;;;5079424;28;20028;-56
2022/06/06 00:22:42;;;;;;;1.25;1.15;;;20.90;59.20;;;;;;5081978;28;20059;-54
2022/06/06 00:25:09;;;;;;;0.93;0.93;;;20.90;59.10;;;;;;5082316;28;20028;-55
2022/06/06 00:27:35;;;;;;;1.30;1.10;;;20.90;59.10;;;;;;5061729;28;20065;-56
2022/06/06 00:30:02;;;;;;;1.30;1.20;;;20.90;58.90;;;;;;5062209;28;20084;-57
2022/06/06 00:35:12;;;;;;;1.42;0.73;;;21.00;58.80;;;;;;5062043;28;20053;-54
2022/06/06 00:37:41;;;;;;;1.20;1.10;;;21.00;58.70;;;;;;5068866;28;20032;-53
2022/06/06 00:40:09;;;;;;;1.05;0.95;;;21.00;58.60;;;;;;5082030;28;20017;-54
2022/06/06 00:42:38;;;;;;;1.25;1.15;;;21.00;58.50;;;;;;5082151;28;20056;-56
2022/06/06 00:45:24;;;;;;;0.95;0.82;;;21.00;58.40;;;;;;5082271;28;20492;-57
2022/06/06 00:47:57;;;;;;;0.98;0.98;;;21.10;58.30;;;;;;5081542;28;20037;-56
2022/06/06 00:50:47;;;;;;;0.80;0.77;;;21.10;58.20;;;;;;5064403;28;20180;-55
2022/06/06 00:53:13;;;;;;;0.85;0.85;;;21.10;58.10;;;;;;5082042;28;20385;-56
2022/06/06 00:55:45;;;;;;;1.10;0.95;;;21.20;58.00;;;;;;5081903;28;20112;-55
2022/06/06 00:58:18;;;;;;;0.95;0.93;;;21.10;57.90;;;;;;5047485;28;20036;-56
2022/06/06 01:00:45;;;;;;;0.90;0.90;;;21.20;57.90;;;;;;5047169;28;20054;-56
2022/06/06 01:03:12;;;;;;;1.00;0.93;;;21.20;57.80;;;;;;5047666;28;20033;-56
2022/06/06 01:05:39;;;;;;;1.00;0.93;;;21.20;57.70;;;;;;5064054;28;20040;-55
2022/06/06 01:08:07;;;;;;;1.10;1.00;;;21.30;57.60;;;;;;5078133;28;20033;-47
2022/06/06 01:10:34;;;;;;;0.88;0.88;;;21.30;57.70;;;;;;5084781;28;20024;-50
2022/06/06 01:13:01;;;;;;;1.70;0.90;;;21.30;57.90;;;;;;5084720;28;20025;-57
2022/06/06 01:15:30;;;;;;;1.05;0.90;;;21.30;58.00;;;;;;5085025;28;20031;-45
2022/06/06 01:18:18;;;;;;;0.80;0.80;;;21.30;58.00;;;;;;5066837;28;20036;-57
2022/06/06 01:21:05;;;;;;;0.90;0.73;;;21.30;57.80;;;;;;5066565;28;20024;-55
2022/06/06 01:23:57;;;;;;;4.78;1.00;;;21.40;58.00;;;;;;5080861;28;20032;-57
2022/06/06 01:26:51;;;;;;;1.35;1.00;;;21.40;58.80;;;;;;5066719;28;20029;-56
2022/06/06 01:29:28;;;;;;;0.80;0.80;;;21.50;59.20;;;;;;5074676;28;20045;-57
2022/06/06 01:32:18;;;;;;;0.90;0.90;;;21.50;59.30;;;;;;5061551;28;20021;-59
2022/06/06 01:34:48;;;;;;;1.38;1.08;;;21.50;59.30;;;;;;5062452;28;20028;-58
2022/06/06 01:37:30;;;;;;;0.90;0.90;;;21.60;59.30;;;;;;5074477;28;20034;-57
2022/06/06 01:39:58;;;;;;;1.33;1.15;;;21.60;59.30;;;;;;5094649;28;20040;-53
2022/06/06 01:42:32;;;;;;;0.85;0.85;;;21.70;59.20;;;;;;5070451;28;20396;-60
2022/06/06 01:45:21;;;;;;;2.03;0.80;;;21.60;59.30;;;;;;5071375;28;20024;-60
2022/06/06 01:47:53;;;;;;;1.10;1.00;;;21.70;59.40;;;;;;5069179;28;20112;-60
2022/06/06 01:50:19;;;;;;;2.50;1.10;;;21.70;59.30;;;;;;5066031;28;20020;-60
2022/06/06 01:52:51;;;;;;;2.15;1.05;;;21.70;59.40;;;;;;5063559;28;20793;-58
2022/06/06 01:55:18;;;;;;;1.02;1.00;;;21.70;59.30;;;;;;5086311;28;20553;-61
2022/06/06 01:57:45;;;;;;;1.10;1.00;;;21.70;59.40;;;;;;5083625;28;20094;-61
2022/06/06 02:00:12;;;;;;;1.40;1.10;;;21.70;59.30;;;;;;5082969;28;20039;-61
2022/06/06 02:02:40;;;;;;;1.30;1.10;;;21.70;59.40;;;;;;5090483;28;20032;-61
2022/06/06 02:05:06;;;;;;;1.40;1.00;;;21.80;59.40;;;;;;5083615;28;20027;-61
2022/06/06 02:07:33;;;;;;;1.15;1.00;;;21.80;59.40;;;;;;5082236;28;20048;-62
2022/06/06 02:09:59;;;;;;;1.33;1.23;;;21.80;59.80;;;;;;5070416;28;20091;-62
2022/06/06 02:12:25;;;;;;;1.10;0.90;;;21.80;59.50;;;;;;5099213;28;20033;-61
2022/06/06 02:14:51;;;;;;;1.10;1.00;;;21.80;59.40;;;;;;5104074;28;20024;-61
2022/06/06 02:17:17;;;;;;;1.48;1.10;;;21.80;59.40;;;;;;5096407;28;20123;-60
2022/06/06 02:19:43;;;;;;;1.02;0.98;;;21.80;59.50;;;;;;5075041;28;20056;-60
2022/06/06 02:22:10;;;;;;;1.13;1.02;;;21.80;59.40;;;;;;5091726;28;20052;-61
2022/06/06 02:24:56;;;;;;;1.35;0.93;;;21.80;60.00;;;;;;5070619;28;20036;-61
2022/06/06 02:27:22;;;;;;;2.67;1.27;;;21.90;59.50;;;;;;4999391;28;20060;-62
2022/06/06 02:29:50;;;;;;;2.10;1.20;;;21.90;59.40;;;;;;5001398;28;20093;-61
2022/06/06 02:32:16;;;;;;;1.80;1.10;;;21.90;59.40;;;;;;4999331;28;20041;-60
2022/06/06 02:34:42;;;;;;;1.38;1.23;;;21.90;59.50;;;;;;5001589;28;20621;-61
2022/06/06 02:37:08;;;;;;;1.70;0.95;;;21.90;59.40;;;;;;5000969;28;20034;-61
2022/06/06 02:39:34;;;;;;;2.60;0.93;;;21.90;59.50;;;;;;5000808;28;20045;-62
2022/06/06 02:42:00;;;;;;;1.45;1.00;;;21.90;59.40;;;;;;5000605;28;20109;-62
2022/06/06 02:44:27;;;;;;;1.17;1.08;;;21.90;59.40;;;;;;5001023;28;20048;-62
2022/06/06 02:46:53;;;;;;;1.40;1.13;;;21.90;59.40;;;;;;5000500;28;20068;-60
2022/06/06 02:49:19;;;;;;;1.05;0.95;;;22.00;59.40;;;;;;5000398;28;20096;-61
2022/06/06 02:51:46;;;;;;;1.20;1.10;;;22.00;59.50;;;;;;5001097;28;20035;-60
2022/06/06 02:54:12;;;;;;;1.10;1.00;;;22.00;59.50;;;;;;4983941;28;20537;-61
2022/06/06 02:56:38;;;;;;;1.33;1.20;;;22.00;59.50;;;;;;4997004;28;20034;-61
2022/06/06 02:59:06;;;;;;;1.52;1.33;;;22.00;59.50;;;;;;4999275;28;20159;-61
2022/06/06 03:01:32;;;;;;;1.27;1.10;;;22.00;59.50;;;;;;5000081;28;20038;-61
2022/06/06 03:03:58;;;;;;;1.20;1.10;;;22.00;59.50;;;;;;5015153;28;20494;-62
2022/06/06 03:06:43;;;;;;;1.00;0.90;;;22.00;59.50;;;;;;5089267;28;20676;-62
2022/06/06 03:09:22;;;;;;;2.60;1.23;;;22.00;59.50;;;;;;5094845;28;20091;-62
2022/06/06 03:11:58;;;;;;;1.05;0.98;;;22.00;59.40;;;;;;5103072;28;20035;-61
2022/06/06 03:14:42;;;;;;;1.17;1.08;;;22.00;59.40;;;;;;5103033;28;20032;-61
2022/06/06 03:20:47;;;;;;;1.58;1.10;;;22.10;59.40;;;;;;5087752;28;20046;-61
2022/06/06 03:23:29;;;;;;;1.30;1.20;;;22.00;59.40;;;;;;4981010;28;20050;-62
2022/06/06 03:26:19;;;;;;;1.08;1.00;;;22.10;59.50;;;;;;4982559;28;20031;-61
2022/06/06 03:28:53;;;;;;;1.40;1.20;;;22.10;59.50;;;;;;4980919;28;20110;-61
2022/06/06 03:31:49;;;;;;;1.00;1.00;;;22.10;59.50;;;;;;4973694;28;20109;-61
2022/06/06 03:34:20;;;;;;;1.20;1.13;;;22.10;59.50;;;;;;4998312;28;20042;-66
2022/06/06 03:37:01;;;;;;;1.20;1.10;;;22.10;59.40;;;;;;4983593;28;20186;-62
2022/06/06 03:39:52;;;;;;;1.25;1.15;;;22.10;59.50;;;;;;4964342;28;20049;-60
2022/06/06 03:42:36;;;;;;;1.30;1.20;;;22.10;59.50;;;;;;4998485;28;20046;-60
2022/06/06 03:45:29;;;;;;;1.30;1.20;;;22.10;59.60;;;;;;4999150;28;20093;-61
2022/06/06 03:48:20;;;;;;;1.27;1.17;;;22.10;59.60;;;;;;5000421;28;20053;-59
2022/06/06 03:50:58;;;;;;;1.30;1.20;;;22.10;59.60;;;;;;4992985;28;20026;-60
2022/06/06 03:54:05;;;;;;;1.70;1.35;;;22.10;59.60;;;;;;5004152;28;20034;-63
2022/06/06 03:57:01;;;;;;;1.25;1.08;;;22.10;60.10;;;;;;5001717;28;20033;-60
2022/06/06 03:59:30;;;;;;;1.50;1.20;;;22.10;59.50;;;;;;5015697;28;20078;-60
2022/06/06 04:02:02;;;;;;;2.58;1.30;;;22.10;59.50;;;;;;5062963;28;20029;-59
2022/06/06 04:04:29;;;;;;;2.20;1.50;;;22.10;59.50;;;;;;5083633;28;20032;-61
2022/06/06 04:06:59;;;;;;;1.58;1.33;;;22.10;59.50;;;;;;5083934;28;20453;-61
2022/06/06 04:09:29;;;;;;;1.40;1.20;;;22.10;59.60;;;;;;5094952;28;20032;-60
2022/06/06 04:12:05;;;;;;;1.30;1.20;;;22.10;59.60;;;;;;5081257;28;20032;-61
2022/06/06 04:14:39;;;;;;;1.38;1.27;;;22.10;59.60;;;;;;5082151;28;20128;-61
2022/06/06 04:17:26;;;;;;;1.40;1.30;;;22.10;59.60;;;;;;5062452;28;20033;-61
2022/06/06 04:20:18;;;;;;;1.45;1.20;;;22.10;59.60;;;;;;5063813;28;20059;-61
2022/06/06 04:23:29;;;;;;;1.17;1.08;;;22.10;59.60;;;;;;5063379;28;20055;-62
2022/06/06 04:26:18;;;;;;;1.17;1.08;;;22.10;59.60;;;;;;4966972;28;20038;-62
2022/06/06 04:29:03;;;;;;;1.10;1.00;;;22.10;59.60;;;;;;4980483;28;20030;-61
2022/06/06 04:31:43;;;;;;;1.30;1.20;;;22.10;59.60;;;;;;4965185;28;20034;-61
2022/06/06 04:34:27;;;;;;;1.20;1.10;;;22.10;59.60;;;;;;4980319;28;20035;-61
2022/06/06 04:37:08;;;;;;;1.17;1.00;;;22.10;59.60;;;;;;4979777;28;20035;-61
2022/06/06 04:39:48;;;;;;;1.85;1.00;;;22.10;59.60;;;;;;4965806;28;20070;-62
2022/06/06 04:42:23;;;;;;;1.70;1.30;;;22.10;59.60;;;;;;4984067;28;20034;-60
2022/06/06 04:45:17;;;;;;;1.17;1.08;;;22.10;59.50;;;;;;4991677;28;20041;-61
2022/06/06 04:47:43;;;;;;;1.33;1.23;;;22.10;59.50;;;;;;5003073;28;20045;-61
2022/06/06 04:50:14;;;;;;;1.10;1.00;;;22.10;59.50;;;;;;4970537;28;20027;-62
2022/06/06 04:52:43;;;;;;;1.25;1.15;;;22.10;59.50;;;;;;4982976;28;20076;-61
2022/06/06 04:55:10;;;;;;;1.33;1.17;;;22.10;59.50;;;;;;4983744;28;20031;-61
2022/06/06 04:57:37;;;;;;;1.40;1.30;;;22.10;59.60;;;;;;4983135;28;20035;-61
2022/06/06 05:00:05;;;;;;;1.40;1.30;;;22.10;59.50;;;;;;5020789;28;20040;-62
2022/06/06 05:02:31;;;;;;;1.48;1.20;;;22.10;59.60;;;;;;5054584;28;20033;-61
2022/06/06 05:04:57;;;;;;;1.20;1.10;;;22.10;59.60;;;;;;5063057;28;20640;-64
2022/06/06 05:07:37;;;;;;;1.30;1.20;;;22.10;59.50;;;;;;5054373;28;20057;-62
2022/06/06 05:10:21;;;;;;;3.55;1.23;;;22.10;59.60;;;;;;5082810;28;20083;-63
2022/06/06 05:13:02;;;;;;;1.67;1.15;;;22.10;59.60;;;;;;5065143;28;20060;-62
2022/06/06 05:15:57;;;;;;;1.23;1.13;;;22.10;59.70;;;;;;5083184;28;20033;-62
2022/06/06 05:19:05;;;;;;;1.27;1.02;;;22.10;59.70;;;;;;5056378;28;20040;-61
2022/06/06 05:21:54;;;;;;;2.08;1.20;;;22.10;59.60;;;;;;5071644;28;20469;-63
2022/06/06 05:24:40;;;;;;;1.20;1.10;;;22.10;59.60;;;;;;5061900;28;20028;-61
2022/06/06 05:27:22;;;;;;;1.30;1.20;;;22.10;59.60;;;;;;5087309;28;20051;-60
2022/06/06 05:29:54;;;;;;;1.23;1.13;;;22.10;59.60;;;;;;5104650;28;20020;-63
2022/06/06 05:32:33;;;;;;;1.20;1.10;;;22.10;59.60;;;;;;5084130;28;20052;-61
2022/06/06 05:35:15;;;;;;;1.20;1.10;;;22.10;59.60;;;;;;5103572;28;20023;-62
2022/06/06 05:37:46;;;;;;;1.08;1.08;;;22.10;59.50;;;;;;5075137;28;20059;-63
2022/06/06 05:40:35;;;;;;;1.33;1.20;;;22.10;59.50;;;;;;5089323;28;20017;-60
2022/06/06 05:43:07;;;;;;;1.00;1.00;;;22.10;59.60;;;;;;5062988;28;20024;-61
2022/06/06 05:45:42;;;;;;;2.35;1.50;;;22.10;59.60;;;;;;5067824;28;20040;-60
2022/06/06 05:48:11;;;;;;;1.38;1.27;;;22.10;59.60;;;;;;5062506;28;20048;-60
2022/06/06 05:50:46;;;;;;;1.58;1.23;;;22.10;59.60;;;;;;5063671;28;20033;-61
2022/06/06 05:53:34;;;;;;;1.30;1.20;;;22.10;59.50;;;;;;5083984;28;20028;-60
2022/06/06 05:56:22;;;;;;;1.60;1.50;;;22.10;59.50;;;;;;5084296;28;20028;-58
2022/06/06 05:59:06;;;;;;;1.30;1.20;;;22.10;59.60;;;;;;5072301;28;20040;-60
2022/06/06 06:01:42;;;;;;;1.25;1.15;;;22.10;59.60;;;;;;5078824;28;20120;-60
2022/06/06 06:04:20;;;;;;;2.47;1.25;;;22.10;59.60;;;;;;5057734;28;20031;-60
2022/06/06 06:07:18;;;;;;;1.30;1.20;;;22.00;59.60;;;;;;5066808;28;20036;-60
2022/06/06 06:09:52;;;;;;;1.13;1.02;;;22.00;59.60;;;;;;5054833;28;20542;-60
2022/06/06 06:12:41;;;;;;;1.38;1.00;;;22.00;59.70;;;;;;5082651;28;20028;-61
2022/06/06 06:15:33;;;;;;;1.25;1.15;;;22.10;59.80;;;;;;5083025;28;20028;-61
2022/06/06 06:18:00;;;;;;;1.50;1.40;;;22.00;60.00;;;;;;5083569;28;20028;-61
2022/06/06 06:20:32;;;;;;;1.25;1.15;;;22.00;60.00;;;;;;5064892;28;20020;-61
2022/06/06 06:23:04;;;;;;;2.22;1.08;;;22.00;59.90;;;;;;5069940;28;20052;-62
2022/06/06 06:25:33;;;;;;;1.20;1.10;;;22.00;60.60;;;;;;5102043;28;20028;-61
2022/06/06 06:28:10;;;;;;;1.05;1.02;;;22.00;59.80;;;;;;5099501;28;20104;-60
2022/06/06 06:31:03;;;;;;;1.25;1.15;;;22.00;59.90;;;;;;5101498;28;20039;-62
2022/06/06 06:33:43;;;;;;;1.30;1.20;;;22.00;59.80;;;;;;5066674;28;20037;-61
2022/06/06 06:36:22;;;;;;;2.42;1.20;;;22.00;59.70;;;;;;5065413;28;20031;-61
2022/06/06 06:38:55;;;;;;;1.58;1.20;;;22.00;59.80;;;;;;5083231;28;20032;-61
2022/06/06 06:41:26;;;;;;;1.20;1.10;;;22.00;59.80;;;;;;5063640;28;20032;-62
2022/06/06 06:44:01;;;;;;;1.48;1.20;;;22.00;59.80;;;;;;5065632;28;20035;-62
2022/06/06 06:46:33;;;;;;;1.40;1.30;;;22.00;59.70;;;;;;5100360;28;20092;-62
2022/06/06 06:49:22;;;;;;;1.33;1.10;;;22.00;59.80;;;;;;5094456;28;20060;-61
2022/06/06 06:52:08;;;;;;;1.30;1.20;;;22.00;59.70;;;;;;5064923;28;20047;-61
2022/06/06 06:54:56;;;;;;;1.35;1.25;;;22.00;59.80;;;;;;5065646;28;20025;-61
2022/06/06 06:57:49;;;;;;;1.20;1.05;;;22.00;59.80;;;;;;5082356;28;20063;-62
2022/06/06 07:00:20;;;;;;;1.30;1.20;;;22.00;59.70;;;;;;5089796;28;20034;-62
2022/06/06 07:09:00;;;;;;;1.38;1.27;;;22.00;59.70;;;;;;5063021;28;20106;-61
2022/06/06 07:11:29;;;;;;;1.73;1.23;;;21.90;59.70;;;;;;5075445;28;20052;-62
2022/06/06 07:14:16;;;;;;;1.33;1.23;;;21.90;59.70;;;;;;5071692;28;20060;-62
2022/06/06 07:16:42;;;;;;;1.10;1.00;;;21.90;59.80;;;;;;5079255;28;20040;-60
2022/06/06 07:19:22;;;;;;;1.25;1.10;;;21.90;59.70;;;;;;5082815;28;20545;-61
2022/06/06 07:21:50;;;;;;;1.17;1.08;;;21.90;59.80;;;;;;5081251;28;20505;-61
2022/06/06 07:24:17;;;;;;;;;;;21.90;59.80;;;;;;5065457;28;20561;-60
2022/06/06 07:26:44;;;;;;;1.25;1.13;;;21.90;59.80;;;;;;5082262;28;19919;-60
2022/06/06 07:29:12;;;;;;;1.20;1.10;;;21.90;59.80;;;;;;5086402;28;20075;-60
2022/06/06 07:32:02;;;;;;;1.30;1.20;;;21.90;59.80;;;;;;5084212;28;20088;-60
2022/06/06 07:34:34;;;;;;;1.10;1.00;;;21.90;59.80;;;;;;5053430;28;20028;-63
2022/06/06 07:37:16;;;;;;;1.40;1.25;;;21.90;59.90;;;;;;5062307;28;20029;-64
2022/06/06 07:40:05;;;;;;;1.20;1.10;;;21.90;59.90;;;;;;5061582;28;20124;-63
2022/06/06 07:42:50;;;;;;;1.20;1.00;;;21.90;59.90;;;;;;5066512;28;20024;-60
2022/06/06 07:45:32;;;;;;;1.33;1.23;;;21.90;59.80;;;;;;5091557;28;20028;-60
2022/06/06 07:48:36;;;;;;;1.30;1.20;;;21.90;59.90;;;;;;5063622;28;20031;-60
2022/06/06 07:51:06;;;;;;;1.20;1.10;;;21.90;59.90;;;;;;5051753;28;20020;-60
2022/06/06 07:54:17;;;;;;;1.50;1.40;;;21.90;59.90;;;;;;5089655;28;20505;-61
2022/06/06 07:56:57;;;;;;;1.17;1.00;;;21.80;59.90;;;;;;5040988;28;20040;-59
2022/06/06 07:59:35;;;;;;;1.45;1.35;;;21.90;60.70;;;;;;5074573;28;20029;-64
2022/06/06 08:02:11;;;;;;;2.72;1.30;;;21.90;60.20;;;;;;5083109;28;20036;-61
2022/06/06 08:04:52;;;;;;;1.45;1.17;;;21.80;60.00;;;;;;5081750;28;20036;-53
2022/06/06 08:07:24;;;;;;;2.55;1.20;;;21.80;59.80;;;;;;5073339;28;20048;-56
2022/06/06 08:10:13;;;;;;;1.38;1.10;;;21.80;59.80;;;;;;5044375;28;20040;-60
2022/06/06 08:13:03;;;;;;;2.40;1.40;;;21.80;59.80;;;;;;5076716;28;20036;-61
2022/06/06 08:15:40;;;;;;;1.42;1.20;;;21.80;59.80;;;;;;5106691;28;20643;-55
2022/06/06 08:18:32;;;;;;;1.70;1.40;;;21.80;59.80;;;;;;5072515;28;20061;-60
2022/06/06 08:21:20;;;;;;;2.25;1.27;;;21.80;59.90;;;;;;5045957;28;20074;-64
2022/06/06 08:23:46;;;;;;;1.80;1.38;;;21.80;59.90;;;;;;5087728;28;20035;-65
2022/06/06 08:26:12;;;;;;;2.45;1.30;;;21.90;58.80;;;;;;5068639;28;20032;-61
2022/06/06 08:28:40;;;;;;;6.95;1.48;;;21.80;58.10;;;;;;5086223;28;20142;-47
2022/06/06 08:31:07;;;;;;;1.70;1.33;;;21.80;57.50;;;;;;5073080;28;20052;-54
2022/06/06 08:33:33;;;;;;;;;;;21.80;57.00;;;;;;5073068;28;20408;-57
2022/06/06 08:36:33;;;;;;;1.98;1.33;;;21.70;57.30;;;;;;5085285;28;19939;-57
2022/06/06 08:38:59;;;;;;;2.35;1.42;;;21.60;56.70;;;;;;5086357;28;20084;-57
2022/06/06 08:41:46;;;;;;;1.55;1.20;;;21.60;56.60;;;;;;5085418;28;20582;-57
2022/06/06 08:44:48;;;;;;;1.40;1.10;;;21.50;56.40;;;;;;5085982;28;20059;-56
2022/06/06 08:47:42;;;;;;;2.28;1.05;;;21.50;56.30;;;;;;5085542;28;20068;-56
2022/06/06 08:50:46;;;;;;;1.73;0.98;;;21.40;56.20;;;;;;5034073;28;20032;-57
2022/06/06 08:53:34;;;;;;;1.35;1.10;;;21.30;55.80;;;;;;5038694;28;20056;-56
2022/06/06 08:56:21;;;;;;;1.20;1.00;;;21.30;55.80;;;;;;5085680;28;20029;-55
2022/06/06 08:59:08;;;;;;;1.73;1.20;;;21.20;55.80;;;;;;5085296;28;20056;-57
2022/06/06 09:01:55;;;;;;;1.83;1.10;;;21.10;55.60;;;;;;5048428;28;20349;-57
2022/06/06 09:04:45;;;;;;;1.30;1.20;;;21.10;55.60;;;;;;5076701;28;20028;-57
2022/06/06 09:07:14;;;;;;;1.67;1.30;;;21.00;55.40;;;;;;5068448;28;20041;-57
2022/06/06 09:10:19;;;;;;;1.65;1.25;;;20.90;55.40;;;;;;5069416;28;20025;-57
2022/06/06 09:13:18;;;;;;;1.58;1.38;;;20.90;55.40;;;;;;5002849;28;20053;-57
2022/06/06 09:16:03;;;;;;;;;;;20.80;55.40;;;;;;4987354;28;20039;-58
2022/06/06 09:18:44;;;;;;;1.35;1.00;;;20.80;55.50;;;;;;5002972;28;19937;-54
2022/06/06 09:21:49;;;;;;;1.33;1.10;;;20.70;55.40;;;;;;5002690;28;20054;-56
2022/06/06 09:24:21;;;;;;;1.20;1.10;;;20.60;55.40;;;;;;4961699;28;20097;-58
2022/06/06 09:27:15;;;;;;;1.70;1.10;;;20.60;55.40;;;;;;5002938;28;20042;-58
2022/06/06 09:30:02;;;;;;;2.47;0.90;;;20.50;55.40;;;;;;4951569;29;20036;-58
2022/06/06 09:33:13;;;;;;;1.13;1.02;;;20.50;55.30;;;;;;4935346;29;20040;-58
2022/06/06 09:35:45;;;;;;;1.38;1.10;;;20.40;55.30;;;;;;4869696;29;20108;-57
2022/06/06 09:38:31;;;;;;;1.05;0.95;;;20.30;55.30;;;;;;4867663;29;20068;-55
2022/06/06 09:40:58;;;;;;;1.48;1.20;;;20.30;55.40;;;;;;4873415;29;20104;-58
2022/06/06 09:44:10;;;;;;;1.30;1.10;;;20.20;55.40;;;;;;4869276;29;20081;-54
2022/06/06 09:46:51;;;;;;;0.98;0.98;;;20.20;55.40;;;;;;4857442;29;20037;-55
2022/06/06 09:49:31;;;;;;;1.30;1.20;;;20.10;55.40;;;;;;4902831;29;20257;-58
2022/06/06 09:52:21;;;;;;;1.00;0.90;;;20.00;55.50;;;;;;4925350;29;20108;-59
2022/06/06 10:01:17;;;;;;;0.70;0.70;;;19.90;55.70;;;;;;4942638;29;20072;-58
2022/06/06 10:03:50;;;;;;;1.10;1.00;;;19.80;55.60;;;;;;4924938;29;20036;-58
2022/06/06 10:06:34;;;;;;;0.77;0.70;;;19.80;55.70;;;;;;4942147;28;20094;-58
2022/06/06 10:09:08;;;;;;;1.23;1.05;;;19.80;55.90;;;;;;4982912;28;20614;-58
2022/06/06 10:11:45;;;;;;;1.08;0.93;;;19.80;56.00;;;;;;5051984;28;20100;-58
2022/06/06 10:14:44;;;;;;;1.00;0.90;;;19.80;56.10;;;;;;5066051;28;20405;-58
2022/06/06 10:17:28;;;;;;;0.90;0.80;;;19.70;56.30;;;;;;4982672;28;20058;-58
2022/06/06 10:20:00;;;;;;;0.95;0.80;;;19.70;56.40;;;;;;4982682;28;20062;-57
2022/06/06 10:22:32;;;;;;;1.10;1.00;;;19.60;56.50;;;;;;4982087;28;20059;-56
2022/06/06 10:25:15;;;;;;;1.00;0.90;;;19.60;56.40;;;;;;4982706;28;20038;-55
2022/06/06 10:28:00;;;;;;;0.85;0.80;;;19.60;56.50;;;;;;4966272;28;20067;-57
2022/06/06 10:30:37;;;;;;;0.95;0.73;;;19.60;56.50;;;;;;4982120;28;20031;-57
2022/06/06 10:33:16;;;;;;;0.85;0.80;;;19.60;56.50;;;;;;4966463;28;20038;-58
2022/06/06 10:35:48;;;;;;;0.80;0.80;;;19.60;56.60;;;;;;4965727;28;20035;-57
2022/06/06 10:38:33;;;;;;;0.70;0.70;;;19.60;56.70;;;;;;4982240;28;20041;-58
2022/06/06 10:41:05;;;;;;;1.15;1.00;;;19.60;56.90;;;;;;4981965;28;20039;-58
2022/06/06 10:43:56;;;;;;;1.10;1.00;;;19.60;56.90;;;;;;4950073;28;20031;-58
2022/06/06 10:46:25;;;;;;;1.15;1.05;;;19.50;56.90;;;;;;4982088;28;20050;-57
2022/06/06 10:49:09;;;;;;;1.10;1.00;;;19.50;57.00;;;;;;4982119;28;20085;-57
2022/06/06 10:52:04;;;;;;;1.00;0.90;;;19.50;57.10;;;;;;4966426;28;20031;-56
2022/06/06 10:54:36;;;;;;;1.63;0.90;;;19.50;57.30;;;;;;5058411;28;20022;-58
2022/06/06 10:57:36;;;;;;;0.90;0.90;;;19.50;57.40;;;;;;5043278;28;20026;-57
2022/06/06 11:00:40;;;;;;;0.90;0.80;;;19.50;57.50;;;;;;5039016;28;20044;-58
2022/06/06 11:03:35;;;;;;;2.03;0.80;;;19.50;57.60;;;;;;5061434;28;20032;-58
2022/06/06 11:06:10;;;;;;;0.88;0.88;;;19.50;57.60;;;;;;5061817;28;20033;-58
2022/06/06 11:09:07;;;;;;;0.73;0.73;;;19.50;57.60;;;;;;5063435;28;20742;-58
2022/06/06 11:11:36;;;;;;;0.88;0.80;;;19.50;57.70;;;;;;5066187;28;20021;-58
2022/06/06 11:14:24;;;;;;;0.80;0.80;;;19.50;57.70;;;;;;5062813;28;20399;-58
2022/06/06 11:17:24;;;;;;;1.25;1.00;;;19.50;57.80;;;;;;5061806;28;20116;-58
2022/06/06 11:20:28;;;;;;;0.70;0.70;;;19.50;57.90;;;;;;5063031;28;20051;-58
2022/06/06 11:23:02;;;;;;;0.80;0.80;;;19.50;57.90;;;;;;5061253;28;20052;-57
2022/06/06 11:25:28;;;;;;;0.70;0.65;;;19.50;57.90;;;;;;5063584;28;20025;-58
2022/06/06 11:28:33;;;;;;;0.90;0.90;;;19.50;58.00;;;;;;5061521;28;20040;-57
2022/06/06 11:31:27;;;;;;;1.30;1.02;;;19.50;58.00;;;;;;5033840;28;20046;-58
2022/06/06 11:34:14;;;;;;;0.88;0.88;;;19.50;58.00;;;;;;5057656;28;20028;-57
2022/06/06 11:37:10;;;;;;;0.90;0.90;;;19.60;58.10;;;;;;5081697;28;20028;-58
2022/06/06 11:40:07;;;;;;;1.20;0.90;;;19.60;58.10;;;;;;5081639;28;20021;-59
2022/06/06 11:43:05;;;;;;;0.85;0.80;;;19.60;58.10;;;;;;5042622;28;20097;-58
2022/06/06 11:45:50;;;;;;;0.75;0.75;;;19.60;58.10;;;;;;5027355;28;20057;-58
2022/06/06 11:48:48;;;;;;;1.30;1.20;;;19.60;58.20;;;;;;5042621;28;20494;-59
2022/06/06 11:51:42;;;;;;;1.20;1.08;;;19.60;58.10;;;;;;5060603;28;20025;-58
2022/06/06 11:54:47;;;;;;;0.95;0.68;;;19.60;58.20;;;;;;5061336;28;20059;-58
2022/06/06 11:57:54;;;;;;;0.80;0.77;;;19.60;58.20;;;;;;5046908;28;20531;-58
2022/06/06 12:00:38;;;;;;;1.00;0.90;;;19.60;58.20;;;;;;5061320;28;20025;-58
2022/06/06 12:03:36;;;;;;;1.27;0.75;;;19.60;58.30;;;;;;5061176;28;20059;-58
2022/06/06 12:06:17;;;;;;;0.80;0.80;;;19.60;58.20;;;;;;5062497;28;20124;-58
2022/06/06 12:09:13;;;;;;;0.90;0.90;;;19.60;58.30;;;;;;5062641;28;20047;-56
2022/06/06 12:12:04;;;;;;;0.82;0.82;;;19.60;58.30;;;;;;5060317;28;20027;-59
2022/06/06 12:14:51;;;;;;;1.05;0.98;;;19.60;58.30;;;;;;5062253;28;20028;-57
2022/06/06 12:17:48;;;;;;;1.00;0.80;;;19.60;58.30;;;;;;5062504;28;20057;-58
2022/06/06 12:20:23;;;;;;;0.98;0.80;;;19.60;58.30;;;;;;5060924;28;20120;-58
2022/06/06 12:22:59;;;;;;;1.20;0.90;;;19.60;58.40;;;;;;5059764;28;20069;-58
2022/06/06 12:25:33;;;;;;;0.70;0.70;;;19.60;58.50;;;;;;5062362;28;20784;-58
2022/06/06 12:28:37;;;;;;;1.00;1.00;;;19.60;58.50;;;;;;5049225;28;20070;-57
2022/06/06 12:31:10;;;;;;;0.70;0.70;;;19.60;58.60;;;;;;5062030;28;20066;-58
2022/06/06 12:33:58;;;;;;;0.82;0.82;;;19.70;58.60;;;;;;5044115;28;20088;-55
2022/06/06 12:36:43;;;;;;;1.13;1.02;;;19.70;58.70;;;;;;5061992;28;20116;-57
2022/06/06 12:39:32;;;;;;;1.35;0.85;;;19.70;58.80;;;;;;5045125;28;20426;-60
2022/06/06 12:42:25;;;;;;;1.10;1.00;;;19.70;58.80;;;;;;5050985;28;20027;-58
2022/06/06 12:45:36;;;;;;;1.08;0.98;;;19.70;58.90;;;;;;5073724;28;20032;-56
2022/06/06 12:48:02;;;;;;;1.63;1.00;;;19.70;58.80;;;;;;5043082;28;20040;-58
2022/06/06 12:50:51;;;;;;;1.52;0.90;;;19.70;58.90;;;;;;5082190;28;20060;-56
2022/06/06 12:53:40;;;;;;;0.80;0.80;;;19.70;58.90;;;;;;5063962;28;20248;-57
2022/06/06 12:58:46;;;;;;;1.00;0.90;;;19.80;59.00;;;;;;5079267;28;20024;-57
2022/06/06 13:04:21;;;;;;;1.00;0.90;;;19.80;59.10;;;;;;5065247;28;20082;-58
2022/06/06 13:07:06;;;;;;;0.80;0.80;;;19.80;59.10;;;;;;5065525;28;20159;-57
2022/06/06 13:09:35;;;;;;;1.08;0.98;;;19.80;59.10;;;;;;5075679;28;20494;-57
2022/06/06 13:12:10;;;;;;;0.93;0.80;;;19.80;59.10;;;;;;5085013;28;20028;-57
2022/06/06 13:15:02;;;;;;;0.98;0.88;;;19.80;59.20;;;;;;5075610;28;20035;-57
2022/06/06 13:17:44;;;;;;;1.15;1.00;;;19.80;59.20;;;;;;5047255;28;20029;-57
2022/06/06 13:20:27;;;;;;;2.05;0.80;;;19.80;59.20;;;;;;5071318;28;20025;-57
2022/06/06 13:23:18;;;;;;;1.20;1.10;;;19.80;59.20;;;;;;5084646;28;20076;-58
2022/06/06 13:25:58;;;;;;;1.67;0.85;;;19.90;59.30;;;;;;5085298;28;20028;-57
2022/06/06 13:28:32;;;;;;;0.95;0.90;;;19.80;59.30;;;;;;5068536;28;20047;-57
2022/06/06 13:30:58;;;;;;;0.98;0.93;;;19.90;59.40;;;;;;5061951;28;20440;-55
2022/06/06 13:33:40;;;;;;;0.98;0.90;;;19.90;59.40;;;;;;5074474;28;20051;-57
2022/06/06 13:36:19;;;;;;;1.05;0.95;;;19.90;59.50;;;;;;5085226;28;20414;-55
2022/06/06 13:39:08;;;;;;;1.20;0.88;;;19.90;59.50;;;;;;5065090;28;20116;-57
2022/06/06 13:41:49;;;;;;;0.75;0.70;;;19.90;59.60;;;;;;5079883;28;20064;-57
2022/06/06 13:44:34;;;;;;;1.75;0.90;;;19.90;59.60;;;;;;5067476;28;20119;-57
2022/06/06 13:47:13;;;;;;;1.02;0.93;;;20.00;59.90;;;;;;5084711;28;20056;-57
2022/06/06 13:49:47;;;;;;;1.13;1.02;;;20.00;60.10;;;;;;5084817;28;20115;-56
2022/06/06 13:52:35;;;;;;;1.02;0.93;;;20.00;60.30;;;;;;5050811;28;20031;-55
2022/06/06 13:55:23;;;;;;;0.90;0.90;;;20.00;60.50;;;;;;5084622;28;20032;-56
2022/06/06 13:57:52;;;;;;;;;;;20.00;60.70;;;;;;5084949;28;20024;-56
2022/06/06 14:00:19;;;;;;;1.02;0.80;;;20.00;60.90;;;;;;5084318;28;19931;-57
2022/06/06 14:02:57;;;;;;;1.10;1.00;;;20.10;61.00;;;;;;5053794;28;20035;-56
2022/06/06 14:05:26;;;;;;;1.35;1.15;;;20.10;61.20;;;;;;5046700;28;20041;-57
2022/06/06 14:07:52;;;;;;;0.90;0.90;;;20.10;61.50;;;;;;5064371;28;20029;-56
2022/06/06 14:10:19;;;;;;;1.10;1.00;;;20.10;61.70;;;;;;5076131;28;20017;-58
2022/06/06 14:13:24;;;;;;;1.03;0.93;;;20.10;61.80;;;;;;5063099;28;20051;-57
2022/06/06 14:15:50;;;;;;;1.23;1.13;;;20.20;62.00;;;;;;5021570;28;20577;-57